Check time and date!

LGTT 290830Z 03013KT 350V070 CAVOK 35/12 Q1014
TAF LGTT 290700Z 2909/2918 04010KT 9999 FEW020 TEMPO 2909/2912 02010G20KT
--------------------------------------
LGMG 290800Z 00000KT CAVOK 35/17 Q1012
TAF LGMG 290700Z 2909/2918 35008KT 9999 FEW020 BECMG 2914/2916 VRB05KT
--------------------------------------
LGTG 290820Z 35005KT CAVOK 35/09 Q1014
--------------------------------------
LGEL 290820Z 33008KT CAVOK 36/13 Q1011
TAF LGEL 290500Z 2906/3006 35005KT 9999 FEW020 BECMG 2906/2908 36010KT TEMPO 2909/2912 36010G20KT BECMG 2913/2915 VRB03KT
--------------------------------------
LGAV 290820Z 02015KT CAVOK 35/11 Q1013 RMK Q1013.4 NOSIG
TAF LGAV 290500Z 2906/3006 36008KT 9999 FEW020 BECMG 2906/2908 02018KT TEMPO 2910/2916 02018G28KT BECMG 2917/2919 36010KT
--------------------------------------
LGAT 290800Z 35007KT CAVOK 36/11 Q1012
--------------------------------------
METAR LGAD 290820Z 33008KT CAVOK 35/16 Q1012
METAR LGAL 290820Z 06009KT CAVOK 33/13 Q1013
METAR LGAV 290820Z 02015KT CAVOK 35/11 Q1013 NOSIG
METAR LGBL 290820Z 09009KT CAVOK 32/15 Q1013
METAR LGEL 290820Z 33008KT CAVOK 36/13 Q1011
METAR LGHI 290750Z 36009KT CAVOK 33/11 Q1010
METAR LGIO 290820Z 10002KT CAVOK 32/16 Q1017
METAR LGIR 290820Z 30016KT CAVOK 30/25 Q1010 NOSIG
METAR LGKF 290750Z 00000KT CAVOK 33/19 Q1013
METAR LGKL 290820Z 15008KT CAVOK 33/23 Q1011
METAR LGKO 290820Z 36019G29KT CAVOK 32/17 Q1008
METAR LGKP 290820Z 32025KT CAVOK 29/26 Q1005
METAR LGKR 290820Z 14005KT CAVOK 34/22 Q1012 NOSIG
METAR LGKV 290820Z 13005KT CAVOK 31/18 Q1013
METAR LGKZ 290750Z 09005KT CAVOK 30/10 Q1018
METAR LGLM 290820Z 02007KT CAVOK 31/18 Q1013
METAR LGLR 290750Z 00000KT CAVOK 33/16 Q1014 BLU
METAR LGMK 290820Z 01016KT CAVOK 29/18 Q1010
METAR LGMT 290820Z 32012KT 280V360 CAVOK 31/15 Q1011
METAR LGNX 290750Z 02017KT CAVOK 29/18 Q1010
METAR LGPA 290750Z 35016KT CAVOK 30/17 Q1010
METAR LGPZ 290820Z 00000KT CAVOK 36/16 Q1013
METAR LGRP 290820Z 23007KT CAVOK 33/21 Q1005 NOSIG
METAR LGRX 290820Z VRB03KT CAVOK 35/16 Q1012
METAR LGSA 290820Z 32005KT CAVOK 32/20 Q1011
METAR LGSK 290750Z 36004KT CAVOK 32/22 Q1013
METAR LGSM 290750Z 36014KT 330V030 CAVOK 33/17 Q1008
METAR LGSO 290750Z 36017KT CAVOK 29/18 Q1011
METAR LGSR 290820Z 34020KT CAVOK 29/18 Q1009
METAR LGSY 290750Z 32007KT CAVOK 30/23 Q1013 BLU
METAR LGTG 290750Z 00000KT CAVOK 34/10 Q1014 BLU
METAR LGTS 290820Z 27004KT CAVOK 30/18 Q1013 NOSIG
METAR LGZA 290750Z 04006KT CAVOK 35/16 Q1012

--------------------------------------
TAF LGAD 290800Z 2909/2918 33008KT CAVOK
TAF LGAL 290800Z 2909/2918 07006KT 9999 FEW020 BECMG 2909/2911 20008KT BECMG 2916/2918 VRB05KT
TAF LGAV 290500Z 2906/3006 36008KT 9999 FEW020 BECMG 2906/2908 02018KT TEMPO 2910/2916 02018G28KT BECMG 2917/2919 36010KT
TAF LGBL 290800Z 2909/2918 11012KT 9999 FEW025
TAF LGEL 290500Z 2906/3006 35005KT 9999 FEW020 BECMG 2906/2908 36010KT TEMPO 2909/2912 36010G20KT BECMG 2913/2915 VRB03KT
TAF LGHI 290800Z 2909/2918 01015KT 9999 FEW020 TEMPO 2909/2918 01015G25KT
TAF LGIO 290800Z 2909/2918 VRB03KT 9999 FEW030 BECMG 2909/2911 FEW025 SCT080 BECMG 2916/2918 FEW025
TAF LGIR 290500Z 2906/3006 30013KT 9999 FEW020
TAF LGKC 290800Z 2909/2918 03015KT 9999 FEW020 TEMPO 2909/2915 03015G25KT BECMG 2915/2917 33006KT
TAF LGKF 290800Z 2909/2918 VRB03KT 9999 FEW020 BECMG 2911/2913 30010KT
TAF LGKL 290800Z 2909/2918 16012KT 9999 FEW025
TAF LGKO 290500Z 2906/3006 35015KT 9999 FEW020 TEMPO 2910/2918 35015G25KT
TAF LGKP 290800Z 2909/2918 32025KT 9999 FEW020 TEMPO 2909/2918 32025G35KT
TAF LGKR 290500Z 2906/3006 VRB03KT 9999 FEW020 BECMG 2907/2909 14010KT BECMG 2911/2913 28010KT BECMG 2922/2924 VRB03KT
TAF LGKV 290500Z 2906/3006 VRB03KT 9999 FEW030 BECMG 2910/2912 23010KT TEMPO 2912/2915 FEW030 SCT080 BECMG 2918/2920 VRB03KT
TAF LGLM 290800Z 2909/2918 04010KT CAVOK
TAF LGLR 290800Z 2909/2918 VRB03KT 9999 FEW025 TEMPO 2912/2918 08010KT
TAF LGMK 290800Z 2909/2918 01022KT 9999 FEW025 TEMPO 2909/2918 01022G32KT
TAF LGMT 290800Z 2909/2918 33015KT 9999 FEW020 TEMPO 2912/2918 34015G25KT
TAF LGPZ 290500Z 2906/3006 06005KT 9999 FEW020 BECMG 2908/2910 27010KT SCT020 BECMG 2918/2920 VRB03KT FEW020
TAF LGRP 290500Z 2906/3006 VRB03KT 9999 FEW018 BECMG 2906/2908 24010KT
TAF LGRX 290800Z 2909/2918 03008KT CAVOK TEMPO 2912/2918 29012KT
TAF LGSA 290500Z 2906/3006 VRB03KT 9999 FEW020 BECMG 2907/2909 01010KT BECMG 2916/2918 VRB03KT
TAF LGSK 290800Z 2909/2918 VRB05KT 9999 FEW020
TAF LGSM 290800Z 2909/2918 36012KT 9999 FEW020 TEMPO 2912/2918 36015G25KT
TAF LGSR 290500Z 2906/3006 35016KT 9999 FEW020 TEMPO 2906/2916 35016G26KT
TAF LGST 290800Z 2909/2918 28020KT 9999 FEW020 TEMPO 2912/2918 28020G30KT
TAF LGSY 290800Z 2909/2918 01010KT CAVOK
TAF LGTG 290800Z 2909/2918 35008KT 9999 FEW030
TAF LGTL 290800Z 2909/2918 01010KT 9999 FEW020
TAF LGTS 290500Z 2906/3006 VRB03KT 9999 FEW030 BECMG 2912/2914 16012KT BECMG 2918/2920 VRB03KT
TAF LGZA 290800Z 2909/2918 02007KT 9999 FEW020 BECMG 2911/2913 30010KT